Friday, October 24, 2014, 11:28 PM EDT

KPTB, Petersburg, Dinwiddie County Airport

Location: Petersburg, VA, United States Lat: 37.183
Local Time: 11:28 PM EDT ( 3:28 GMT) Lon: -77.517
Time Zone: US/Eastern Elev: 193 ft

Show me the last for .
Show Decoded

2014-10-24 23:15 METAR KPTB 250315Z AUTO 00000KT 10SM CLR 05/04 A2997 RMK AO2 T00470041 =
2014-10-24 22:35 METAR KPTB 250235Z AUTO 22003KT 5SM -RA CLR 06/05 A2997 RMK AO2 T00560050 =
2014-10-24 22:15 METAR KPTB 250215Z AUTO 00000KT 10SM CLR 05/05 A2997 RMK AO2 T00540047 =
2014-10-24 21:55 METAR KPTB 250155Z AUTO 00000KT 10SM CLR 06/05 A2997 RMK AO2 T00560050 =
2014-10-24 21:35 METAR KPTB 250135Z AUTO 00000KT 10SM CLR 06/06 A2997 RMK AO2 T00640059 =
2014-10-24 21:15 METAR KPTB 250115Z AUTO 00000KT 10SM CLR 07/06 A2996 RMK AO2 T00690063 =
2014-10-24 20:55 METAR KPTB 250055Z AUTO 00000KT 10SM CLR 07/07 A2996 RMK AO2 T00720065 =
2014-10-24 20:35 METAR KPTB 250035Z AUTO 23003KT 7SM -RA CLR 08/07 A2996 RMK AO2 T00760068 =
2014-10-24 20:15 METAR KPTB 250015Z AUTO 00000KT 10SM CLR 08/07 A2996 RMK AO2 T00830074 =
2014-10-24 19:55 METAR KPTB 242355Z AUTO 00000KT 7SM CLR 08/08 A2996 RMK AO2 T00840075 10205
                 20084 =
2014-10-24 19:35 METAR KPTB 242335Z AUTO 00000KT 10SM CLR 09/09 A2996 RMK AO2 T00930085 =
2014-10-24 19:15 METAR KPTB 242315Z AUTO 00000KT 10SM -RA CLR 10/10 A2996 RMK AO2 T01030095 =
2014-10-24 18:55 METAR KPTB 242255Z AUTO 00000KT 10SM -RA CLR 10/09 A2995 RMK AO2 T01020091 =
2014-10-24 18:35 METAR KPTB 242235Z AUTO 23003KT 10SM CLR 12/10 A2995 RMK AO2 T01170103 =
2014-10-24 18:15 METAR KPTB 242215Z AUTO 00000KT 10SM CLR 12/10 A2995 RMK AO2 T01220102 =
2014-10-24 17:55 METAR KPTB 242155Z AUTO 00000KT 10SM CLR 14/10 A2995 RMK AO2 T01400100 =
2014-10-24 17:35 METAR KPTB 242135Z AUTO 00000KT 10SM CLR 16/09 A2994 RMK AO2 T01610092 =
2014-10-24 17:15 METAR KPTB 242115Z AUTO 00000KT 10SM CLR 19/07 A2994 RMK AO2 T01860067 =
2014-10-24 16:55 METAR KPTB 242055Z AUTO 00000KT 10SM CLR 19/07 A2994 RMK AO2 T01850067 =
2014-10-24 16:35 METAR KPTB 242035Z AUTO 27004KT 10SM CLR 19/05 A2994 RMK AO2 T01920045 =
2014-10-24 16:15 METAR KPTB 242015Z AUTO 27005KT 10SM CLR 19/03 A2994 RMK AO2 T01940034 =
2014-10-24 15:55 METAR KPTB 241955Z AUTO 28006KT 10SM CLR 20/04 A2994 RMK AO2 T02000039 =
2014-10-24 15:35 METAR KPTB 241935Z AUTO 29008KT 10SM CLR 20/03 A2995 RMK AO2 T02040032 =
2014-10-24 15:15 METAR KPTB 241915Z AUTO 29006KT 10SM CLR 20/03 A2995 RMK AO2 T02020026 =
2014-10-24 14:55 METAR KPTB 241855Z AUTO 26006KT 10SM CLR 20/04 A2996 RMK AO2 T02000035 =
2014-10-24 14:35 METAR KPTB 241835Z AUTO 26007KT 10SM CLR 20/04 A2996 RMK AO2 T01990035 =
2014-10-24 14:15 METAR KPTB 241815Z AUTO 27008KT 10SM CLR 20/04 A2996 RMK AO2 T02020038 =
2014-10-24 13:55 METAR KPTB 241755Z AUTO 27006KT 10SM CLR 20/04 A2997 RMK AO2 T01960039 10196
                 20083 =
2014-10-24 13:35 METAR KPTB 241735Z AUTO 30004KT 10SM CLR 19/02 A2997 RMK AO2 T01890021 =
2014-10-24 13:15 METAR KPTB 241715Z AUTO 26005KT 10SM CLR 19/04 A2998 RMK AO2 T01900041 =
2014-10-24 12:55 METAR KPTB 241655Z AUTO 30005KT 10SM CLR 19/03 A2999 RMK AO2 T01870030 =
2014-10-24 12:35 METAR KPTB 241635Z AUTO 28004KT 10SM CLR 18/04 A3000 RMK AO2 T01840038 =
2014-10-24 12:15 METAR KPTB 241615Z AUTO 29004KT 10SM CLR 18/04 A3001 RMK AO2 T01840043 =
2014-10-24 11:55 METAR KPTB 241555Z AUTO 31004KT 10SM CLR 17/05 A3002 RMK AO2 T01730049 =
2014-10-24 11:35 METAR KPTB 241535Z AUTO 30006KT 10SM CLR 17/05 A3002 RMK AO2 T01710053 =
2014-10-24 11:15 METAR KPTB 241515Z AUTO 34005KT 10SM CLR 16/06 A3002 RMK AO2 T01620055 =
2014-10-24 10:55 METAR KPTB 241455Z AUTO 32008KT 10SM CLR 16/05 A3003 RMK AO2 T01620052 =
2014-10-24 10:35 METAR KPTB 241435Z AUTO 30006KT 10SM CLR 16/05 A3002 RMK AO2 T01630051 =
2014-10-24 10:15 METAR KPTB 241415Z AUTO 31009G14KT 10SM CLR 16/06 A3002 RMK AO2 T01550056 =
2014-10-24 09:55 METAR KPTB 241355Z AUTO 31006KT 10SM CLR 14/06 A3003 RMK AO2 T01440056 =
2014-10-24 09:35 METAR KPTB 241335Z AUTO 28006KT 10SM CLR 13/05 A3003 RMK AO2 T01300053 =
2014-10-24 09:15 METAR KPTB 241315Z AUTO 28006KT 10SM CLR 12/05 A3002 RMK AO2 T01220054 =
2014-10-24 08:55 METAR KPTB 241255Z AUTO 30005KT 10SM CLR 11/05 A3002 RMK AO2 T01100051 =
2014-10-24 08:35 METAR KPTB 241235Z AUTO 30004KT 10SM CLR 10/05 A3002 RMK AO2 T00990051 =
2014-10-24 08:15 METAR KPTB 241215Z AUTO 27006KT 10SM CLR 09/05 A3002 RMK AO2 T00860050 =
2014-10-24 07:55 METAR KPTB 241155Z AUTO 26004KT 10SM CLR 08/05 A3001 RMK AO2 T00820048 10105
                 20076 =
2014-10-24 07:35 METAR KPTB 241135Z AUTO 28003KT 10SM CLR 08/05 A3001 RMK AO2 T00760047 =
2014-10-24 07:15 METAR KPTB 241115Z AUTO 28004KT 10SM CLR 08/05 A3000 RMK AO2 T00800047 =
2014-10-24 06:55 METAR KPTB 241055Z AUTO 28003KT 10SM CLR 08/05 A3000 RMK AO2 T00800047 =
2014-10-24 06:35 METAR KPTB 241035Z AUTO 28003KT 10SM CLR 08/05 A3000 RMK AO2 T00840047 =
2014-10-24 06:15 METAR KPTB 241015Z AUTO 27004KT 10SM CLR 08/05 A3000 RMK AO2 T00840047 =
2014-10-24 05:55 METAR KPTB 240955Z AUTO 26006KT 10SM CLR 08/05 A3000 RMK AO2 T00820050 =
2014-10-24 05:35 METAR KPTB 240935Z AUTO 26004KT 10SM CLR 08/05 A2999 RMK AO2 T00830049 =
2014-10-24 05:15 METAR KPTB 240915Z AUTO 28003KT 10SM CLR 09/05 A2998 RMK AO2 T00850046 =
2014-10-24 04:55 METAR KPTB 240855Z AUTO 28005KT 10SM CLR 09/05 A2998 RMK AO2 T00900047 =
2014-10-24 04:35 METAR KPTB 240835Z AUTO 26006KT 10SM CLR 09/05 A2997 RMK AO2 T00900047 =
2014-10-24 04:15 METAR KPTB 240815Z AUTO 29005KT 10SM CLR 09/05 A2996 RMK AO2 T00900047 =
2014-10-24 03:55 METAR KPTB 240755Z AUTO 28004KT 10SM CLR 09/05 A2996 RMK AO2 T00910047 =
2014-10-24 03:35 METAR KPTB 240735Z AUTO 27005KT 10SM CLR 09/05 A2997 RMK AO2 T00880050 =
2014-10-24 03:15 METAR KPTB 240715Z AUTO 26007KT 10SM UP CLR 09/05 A2997 RMK AO2 T00860052 =
2014-10-24 02:55 METAR KPTB 240655Z AUTO 25007KT 10SM CLR 10/05 A2996 RMK AO2 T00960049 =
2014-10-24 02:35 METAR KPTB 240635Z AUTO 29005KT 10SM CLR 10/05 A2995 RMK AO2 T00980050 =
2014-10-24 02:15 METAR KPTB 240615Z AUTO 31007KT 10SM CLR 10/05 A2996 RMK AO2 T01010050 =
2014-10-24 01:55 METAR KPTB 240555Z AUTO 29006KT 10SM CLR 10/05 A2997 RMK AO2 T01040050 10126
                 20080 =
2014-10-24 01:35 METAR KPTB 240535Z AUTO 28006KT 10SM CLR 11/05 A2998 RMK AO2 T01050051 =
2014-10-24 01:15 METAR KPTB 240515Z AUTO 28004KT 10SM CLR 11/05 A2998 RMK AO2 T01050051 =
2014-10-24 00:55 METAR KPTB 240455Z AUTO 27005KT 10SM CLR 11/05 A2997 RMK AO2 T01100052 402020074
                 =
2014-10-24 00:35 METAR KPTB 240435Z AUTO 27007KT 10SM CLR 11/05 A2997 RMK AO2 T01120052 =
2014-10-24 00:15 METAR KPTB 240415Z AUTO 27007KT 10SM CLR 11/06 A2997 RMK AO2 T01120055 =
2014-10-23 23:55 METAR KPTB 240355Z AUTO 27007KT 10SM CLR 11/06 A2997 RMK AO2 T01120056 =
2014-10-23 23:35 METAR KPTB 240335Z AUTO 27005KT 10SM CLR 11/06 A2997 RMK AO2 T01130056 =

Support USWX by starting your Amazon purchase here.